createdAt,value
2019-05-03T00:00:37.467Z,9.10
2019-05-03T00:03:08.494Z,9.10
2019-05-03T00:05:42.353Z,9.10
2019-05-03T00:08:12.627Z,9.10
2019-05-03T00:10:44.045Z,9.00
2019-05-03T00:13:15.328Z,9.10
2019-05-03T00:15:52.222Z,9.00
2019-05-03T00:18:22.096Z,8.90
2019-05-03T00:20:52.705Z,8.90
2019-05-03T00:23:22.849Z,8.80
2019-05-03T00:25:52.600Z,8.80
2019-05-03T00:28:23.102Z,8.80
2019-05-03T00:30:52.429Z,8.80
2019-05-03T00:33:22.448Z,8.80
2019-05-03T00:35:56.515Z,8.70
2019-05-03T00:38:25.980Z,8.80
2019-05-03T00:40:55.360Z,8.80
2019-05-03T00:43:24.718Z,8.80
2019-05-03T00:45:55.379Z,8.70
2019-05-03T00:48:24.770Z,8.70
2019-05-03T00:50:54.272Z,8.70
2019-05-03T00:53:23.663Z,8.70
2019-05-03T00:55:53.073Z,8.70
2019-05-03T00:58:22.578Z,8.70
2019-05-03T01:00:52.586Z,8.60
2019-05-03T01:03:22.248Z,8.60
2019-05-03T01:05:52.881Z,8.60
2019-05-03T01:08:23.577Z,8.60
2019-05-03T01:10:53.029Z,8.50
2019-05-03T01:13:22.355Z,8.50
2019-05-03T01:16:02.758Z,8.50
2019-05-03T01:18:32.568Z,8.50
2019-05-03T01:21:02.333Z,8.40
2019-05-03T01:23:32.577Z,8.40
2019-05-03T01:26:03.130Z,8.30
2019-05-03T01:28:32.494Z,8.40
2019-05-03T01:31:02.541Z,8.40
2019-05-03T01:33:32.373Z,8.30
2019-05-03T01:36:02.968Z,8.30
2019-05-03T01:38:32.304Z,8.20
2019-05-03T01:41:01.879Z,8.20
2019-05-03T01:43:31.905Z,8.20
2019-05-03T01:46:02.848Z,8.20
2019-05-03T01:48:49.993Z,8.20
2019-05-03T01:51:21.983Z,8.10
2019-05-03T01:53:52.385Z,8.10
2019-05-03T01:56:22.356Z,8.10
2019-05-03T01:58:52.388Z,8.10
2019-05-03T02:01:23.670Z,8.10
2019-05-03T02:04:06.868Z,8.10
2019-05-03T02:06:36.198Z,8.00
2019-05-03T02:09:08.356Z,8.00
2019-05-03T02:11:37.702Z,8.00
2019-05-03T02:14:08.160Z,8.00
2019-05-03T02:16:39.129Z,7.90
2019-05-03T02:19:08.440Z,7.90
2019-05-03T02:21:37.778Z,8.00
2019-05-03T02:24:08.239Z,8.00
2019-05-03T02:26:37.562Z,7.90
2019-05-03T02:29:06.882Z,7.90
2019-05-03T02:31:36.447Z,7.90
2019-05-03T02:34:05.780Z,7.80
2019-05-03T02:36:35.095Z,7.80
2019-05-03T02:39:08.388Z,7.80
2019-05-03T02:41:37.779Z,7.80
2019-05-03T02:44:07.116Z,7.70
2019-05-03T02:46:56.254Z,7.70
2019-05-03T02:49:29.840Z,7.70
2019-05-03T02:51:59.194Z,7.70
2019-05-03T02:54:28.552Z,7.60
2019-05-03T02:56:57.908Z,7.60
2019-05-03T02:59:28.962Z,7.60
2019-05-03T03:01:59.099Z,7.50
2019-05-03T03:04:28.491Z,7.50
2019-05-03T03:06:58.972Z,7.50
2019-05-03T03:09:41.849Z,7.40
2019-05-03T03:12:11.585Z,7.40
2019-05-03T03:14:41.688Z,7.30
2019-05-03T03:17:14.887Z,7.30
2019-05-03T03:19:47.210Z,7.30
2019-05-03T03:22:18.177Z,7.30
2019-05-03T03:24:50.574Z,7.20
2019-05-03T03:27:25.549Z,7.20
2019-05-03T03:30:10.326Z,7.10
2019-05-03T03:32:41.178Z,7.10
2019-05-03T03:35:20.337Z,7.00
2019-05-03T03:37:46.223Z,6.90
2019-05-03T03:40:17.910Z,6.80
2019-05-03T03:42:50.165Z,6.80
2019-05-03T03:45:19.638Z,6.70
2019-05-03T03:47:52.107Z,6.70
2019-05-03T03:53:35.604Z,6.60
2019-05-03T03:56:05.740Z,6.50
2019-05-03T03:58:36.086Z,6.40
2019-05-03T04:01:06.188Z,6.50
2019-05-03T04:03:36.338Z,6.40
2019-05-03T04:06:06.037Z,6.40
2019-05-03T04:08:36.349Z,6.30
2019-05-03T04:11:06.531Z,6.30
2019-05-03T04:13:37.990Z,6.30
2019-05-03T04:16:18.527Z,6.30
2019-05-03T04:18:50.413Z,6.30
2019-05-03T04:21:19.885Z,6.30
2019-05-03T04:23:49.743Z,6.30
2019-05-03T04:26:19.153Z,6.30
2019-05-03T04:28:49.451Z,6.30
2019-05-03T04:31:18.785Z,6.30
2019-05-03T04:33:48.111Z,6.30
2019-05-03T04:36:17.555Z,6.30
2019-05-03T04:38:46.880Z,6.30
2019-05-03T04:41:16.300Z,6.30
2019-05-03T04:43:46.037Z,6.30
2019-05-03T04:46:17.177Z,6.30
2019-05-03T04:48:46.599Z,6.40
2019-05-03T04:51:16.699Z,6.40
2019-05-03T04:53:47.854Z,6.60
2019-05-03T04:56:17.189Z,6.60
2019-05-03T04:58:46.535Z,6.70
2019-05-03T05:01:16.046Z,6.80
2019-05-03T05:03:45.744Z,6.70
2019-05-03T05:06:15.593Z,6.70
2019-05-03T05:08:47.536Z,6.80
2019-05-03T05:11:17.411Z,6.70
2019-05-03T05:13:46.799Z,6.60
2019-05-03T05:16:16.201Z,6.50
2019-05-03T05:18:47.184Z,6.40
2019-05-03T05:21:20.861Z,6.40
2019-05-03T05:23:57.770Z,6.30
2019-05-03T05:26:35.328Z,6.40
2019-05-03T05:29:07.627Z,6.40
2019-05-03T05:31:36.959Z,6.40
2019-05-03T05:34:08.619Z,6.40
2019-05-03T05:36:37.337Z,6.50
2019-05-03T05:39:08.437Z,6.50
2019-05-03T05:41:37.835Z,6.60
2019-05-03T05:44:08.543Z,6.70
2019-05-03T05:46:42.625Z,6.80
2019-05-03T05:49:14.750Z,6.80
2019-05-03T05:51:44.549Z,6.80
2019-05-03T05:54:14.378Z,6.80
2019-05-03T05:56:48.143Z,6.70
2019-05-03T05:59:22.047Z,6.70
2019-05-03T06:01:53.019Z,6.80
2019-05-03T06:04:24.475Z,6.90
2019-05-03T06:07:01.018Z,7.00
2019-05-03T06:09:32.032Z,7.10
2019-05-03T06:12:04.537Z,7.20
2019-05-03T06:14:35.746Z,7.30
2019-05-03T06:17:06.859Z,7.40
2019-05-03T06:19:37.895Z,7.50
2019-05-03T06:22:11.672Z,7.60
2019-05-03T06:24:54.351Z,7.70
2019-05-03T06:27:28.402Z,7.70
2019-05-03T06:29:59.438Z,7.80
2019-05-03T06:32:34.522Z,7.80
2019-05-03T06:35:05.946Z,8.00
2019-05-03T06:37:37.055Z,8.10
2019-05-03T06:40:09.207Z,8.20
2019-05-03T06:42:50.948Z,8.30
2019-05-03T06:45:11.706Z,8.20
2019-05-03T06:47:48.118Z,8.30
2019-05-03T06:50:11.924Z,8.30
2019-05-03T06:52:41.342Z,8.70
2019-05-03T06:55:10.937Z,9.00
2019-05-03T06:57:45.585Z,9.00
2019-05-03T07:00:27.446Z,8.80
2019-05-03T07:03:01.160Z,8.50
2019-05-03T07:05:32.128Z,8.40
2019-05-03T07:08:20.120Z,8.50
2019-05-03T07:10:54.928Z,8.50
2019-05-03T07:13:25.472Z,8.60
2019-05-03T07:15:56.009Z,8.70
2019-05-03T07:18:25.607Z,8.80
2019-05-03T07:20:57.128Z,9.00
2019-05-03T07:23:26.604Z,9.00
2019-05-03T07:25:56.227Z,9.10
2019-05-03T07:28:25.579Z,9.00
2019-05-03T07:30:54.979Z,9.10
2019-05-03T07:33:26.043Z,9.00
2019-05-03T07:35:55.380Z,8.90
2019-05-03T07:38:24.945Z,8.90
2019-05-03T07:40:54.953Z,8.80
2019-05-03T07:43:24.695Z,9.00
2019-05-03T07:45:55.231Z,9.20
2019-05-03T07:48:26.047Z,9.20
2019-05-03T07:50:55.495Z,9.40
2019-05-03T07:53:25.315Z,9.60
2019-05-03T07:55:59.184Z,9.60
2019-05-03T07:58:30.216Z,9.70
2019-05-03T08:01:09.310Z,9.80
2019-05-03T08:03:35.079Z,9.70
2019-05-03T08:06:05.021Z,9.80
2019-05-03T08:08:35.513Z,9.90
2019-05-03T08:11:05.908Z,10.10
2019-05-03T08:13:35.673Z,10.30
2019-05-03T08:16:05.881Z,10.80
2019-05-03T08:18:35.668Z,11.00
2019-05-03T08:21:05.730Z,10.90
2019-05-03T08:23:35.673Z,10.60
2019-05-03T08:26:06.028Z,10.40
2019-05-03T08:28:35.635Z,10.60
2019-05-03T08:31:30.813Z,10.80
2019-05-03T08:34:10.001Z,10.90
2019-05-03T08:36:57.367Z,11.10
2019-05-03T08:39:26.796Z,10.90
2019-05-03T08:41:57.752Z,10.70
2019-05-03T08:44:29.048Z,10.20
2019-05-03T08:46:59.883Z,10.20
2019-05-03T08:49:29.240Z,10.10
2019-05-03T08:51:58.597Z,10.30
2019-05-03T08:54:27.946Z,10.60
2019-05-03T08:56:57.354Z,10.90
2019-05-03T08:59:32.139Z,11.10
2019-05-03T09:01:57.804Z,10.70
2019-05-03T09:04:36.067Z,10.30
2019-05-03T09:06:58.282Z,10.30
2019-05-03T09:09:38.270Z,10.50
2019-05-03T09:12:07.614Z,10.80
2019-05-03T09:14:41.585Z,10.80
2019-05-03T09:17:08.105Z,10.80
2019-05-03T09:19:38.416Z,10.80
2019-05-03T09:22:07.848Z,10.80
2019-05-03T09:24:37.175Z,10.80
2019-05-03T09:27:06.519Z,10.70
2019-05-03T09:29:43.329Z,11.10
2019-05-03T09:32:07.996Z,11.50
2019-05-03T09:34:39.683Z,11.60
2019-05-03T09:37:09.148Z,11.50
2019-05-03T09:39:38.628Z,11.70
2019-05-03T09:42:08.059Z,11.40
2019-05-03T09:44:37.453Z,11.00
2019-05-03T09:47:07.232Z,10.80
2019-05-03T09:49:36.790Z,10.70
2019-05-03T09:52:08.446Z,10.80
2019-05-03T09:54:38.807Z,11.20
2019-05-03T09:57:08.212Z,11.50
2019-05-03T09:59:37.762Z,11.60
2019-05-03T10:02:07.235Z,11.70
2019-05-03T10:04:36.922Z,11.40
2019-05-03T10:07:06.496Z,11.20
2019-05-03T10:09:35.825Z,11.10
2019-05-03T10:12:06.872Z,11.10
2019-05-03T10:14:36.301Z,11.20
2019-05-03T10:17:15.238Z,11.40
2019-05-03T10:19:45.213Z,11.20
2019-05-03T10:22:15.382Z,11.30
2019-05-03T10:24:45.440Z,11.80
2019-05-03T10:27:15.242Z,12.30
2019-05-03T10:29:44.849Z,12.70
2019-05-03T10:32:31.084Z,12.70
2019-05-03T10:35:05.663Z,12.50
2019-05-03T10:37:35.951Z,12.30
2019-05-03T10:40:08.131Z,12.20
2019-05-03T10:42:38.266Z,11.70
2019-05-03T10:45:09.833Z,11.50
2019-05-03T10:47:39.175Z,11.40
2019-05-03T10:50:10.723Z,11.40
2019-05-03T10:52:44.703Z,11.30
2019-05-03T10:55:15.879Z,11.30
2019-05-03T10:57:47.093Z,11.80
2019-05-03T11:00:42.590Z,12.00
2019-05-03T11:02:55.965Z,12.00
2019-05-03T11:08:22.742Z,12.00
2019-05-03T11:10:52.164Z,12.30
2019-05-03T11:13:21.499Z,12.40
2019-05-03T11:15:50.856Z,12.30
2019-05-03T11:18:20.631Z,12.20
2019-05-03T11:20:50.024Z,12.10
2019-05-03T11:23:19.421Z,11.80
2019-05-03T11:25:48.786Z,12.00
2019-05-03T11:28:25.937Z,12.10
2019-05-03T11:31:01.848Z,12.40
2019-05-03T11:33:31.541Z,12.60
2019-05-03T11:36:14.977Z,12.60
2019-05-03T11:38:46.301Z,12.70
2019-05-03T11:41:29.223Z,12.40
2019-05-03T11:43:46.682Z,12.20
2019-05-03T11:46:16.062Z,12.10
2019-05-03T11:48:45.611Z,12.00
2019-05-03T11:51:15.258Z,12.00
2019-05-03T11:53:45.081Z,12.10
2019-05-03T11:56:14.882Z,12.10
2019-05-03T11:58:45.691Z,12.10
2019-05-03T12:01:20.107Z,12.20
2019-05-03T12:03:49.836Z,12.60
2019-05-03T12:06:19.235Z,12.80
2019-05-03T12:08:48.607Z,12.70
2019-05-03T12:11:17.936Z,12.50
2019-05-03T12:13:47.285Z,12.40
2019-05-03T12:16:23.922Z,12.60
2019-05-03T12:18:53.484Z,12.90
2019-05-03T12:21:20.415Z,12.90
2019-05-03T12:23:50.228Z,13.10
2019-05-03T12:26:20.709Z,13.20
2019-05-03T12:28:50.685Z,13.50
2019-05-03T12:31:33.397Z,13.50
2019-05-03T12:33:54.890Z,13.50
2019-05-03T12:36:24.746Z,13.30
2019-05-03T12:38:54.840Z,13.30
2019-05-03T12:41:26.547Z,13.30
2019-05-03T12:43:55.964Z,13.40
2019-05-03T12:46:26.904Z,13.50
2019-05-03T12:48:56.248Z,13.40
2019-05-03T12:51:25.825Z,13.50
2019-05-03T12:53:55.306Z,13.50
2019-05-03T12:56:32.308Z,13.50
2019-05-03T12:58:57.432Z,14.10
2019-05-03T13:01:40.985Z,14.30
2019-05-03T13:04:05.734Z,14.30
2019-05-03T13:06:36.560Z,14.20
2019-05-03T13:09:07.351Z,14.00
2019-05-03T13:11:51.171Z,13.20
2019-05-03T13:14:09.910Z,13.10
2019-05-03T13:16:39.287Z,12.60
2019-05-03T13:19:08.673Z,12.30
2019-05-03T13:21:38.079Z,12.20
2019-05-03T13:24:07.413Z,12.30
2019-05-03T13:26:36.757Z,12.40
2019-05-03T13:29:06.165Z,12.90
2019-05-03T13:31:35.611Z,13.30
2019-05-03T13:34:05.604Z,13.40
2019-05-03T13:36:35.386Z,13.00
2019-05-03T13:39:13.183Z,12.80
2019-05-03T13:41:38.431Z,12.40
2019-05-03T13:44:07.781Z,12.10
2019-05-03T13:46:40.074Z,12.00
2019-05-03T13:49:15.840Z,11.80
2019-05-03T13:51:45.523Z,12.10
2019-05-03T13:54:15.543Z,12.40
2019-05-03T13:56:44.880Z,12.60
2019-05-03T13:59:19.708Z,12.80
2019-05-03T14:01:45.320Z,12.90
2019-05-03T14:04:14.915Z,12.90
2019-05-03T14:06:44.811Z,13.00
2019-05-03T14:09:15.951Z,12.90
2019-05-03T14:11:45.285Z,13.00
2019-05-03T14:14:15.248Z,13.40
2019-05-03T14:16:45.257Z,13.90
2019-05-03T14:19:17.591Z,14.20
2019-05-03T14:21:51.391Z,14.60
2019-05-03T14:25:16.621Z,14.60
2019-05-03T14:27:46.252Z,14.90
2019-05-03T14:30:17.430Z,15.00
2019-05-03T14:32:48.701Z,14.60
2019-05-03T14:35:18.047Z,13.50
2019-05-03T14:37:47.471Z,13.30
2019-05-03T14:40:16.819Z,12.70
2019-05-03T14:42:46.162Z,12.20
2019-05-03T14:45:15.556Z,11.90
2019-05-03T14:47:44.884Z,11.30
2019-05-03T14:50:15.549Z,11.00
2019-05-03T14:52:45.617Z,10.70
2019-05-03T14:55:16.866Z,10.60
2019-05-03T14:57:56.821Z,10.60
2019-05-03T15:00:27.926Z,10.70
2019-05-03T15:02:58.977Z,10.90
2019-05-03T15:05:28.378Z,11.00
2019-05-03T15:07:57.716Z,11.00
2019-05-03T15:10:27.044Z,11.00
2019-05-03T15:12:56.618Z,11.30
2019-05-03T15:15:28.721Z,11.40
2019-05-03T15:18:07.560Z,11.50
2019-05-03T15:20:37.039Z,11.60
2019-05-03T15:23:06.536Z,11.40
2019-05-03T15:25:35.927Z,11.30
2019-05-03T15:28:05.302Z,11.00
2019-05-03T15:30:35.241Z,10.90
2019-05-03T15:33:05.248Z,10.80
2019-05-03T15:35:35.317Z,10.70
2019-05-03T15:38:05.586Z,10.60
2019-05-03T15:40:35.137Z,10.60
2019-05-03T15:43:10.239Z,10.60
2019-05-03T15:45:50.510Z,10.50
2019-05-03T15:48:21.569Z,10.70
2019-05-03T15:50:50.983Z,10.70
2019-05-03T15:53:20.313Z,10.70
2019-05-03T15:55:49.718Z,10.80
2019-05-03T15:58:19.036Z,10.70
2019-05-03T16:00:48.797Z,10.70
2019-05-03T16:03:18.191Z,10.50
2019-05-03T16:05:47.528Z,10.50
2019-05-03T16:08:17.142Z,10.50
2019-05-03T16:10:46.712Z,10.50
2019-05-03T16:13:16.596Z,10.60
2019-05-03T16:15:46.064Z,10.80
2019-05-03T16:18:15.499Z,10.80
2019-05-03T16:20:45.188Z,10.80
2019-05-03T16:23:15.417Z,10.90
2019-05-03T16:25:45.131Z,10.80
2019-05-03T16:28:17.373Z,10.90
2019-05-03T16:30:48.339Z,10.90
2019-05-03T16:33:27.135Z,10.80
2019-05-03T16:35:50.288Z,10.80
2019-05-03T16:38:20.995Z,10.80
2019-05-03T16:40:50.335Z,10.70
2019-05-03T16:43:19.863Z,10.60
2019-05-03T16:45:49.283Z,10.70
2019-05-03T16:48:18.698Z,10.50
2019-05-03T16:50:48.106Z,10.60
2019-05-03T16:53:17.507Z,10.70
2019-05-03T16:55:46.942Z,10.70
2019-05-03T16:58:16.928Z,10.80
2019-05-03T17:00:46.500Z,10.80
2019-05-03T17:03:17.517Z,11.00
2019-05-03T17:05:53.981Z,11.00
2019-05-03T17:08:40.327Z,11.00
2019-05-03T17:11:17.306Z,10.90
2019-05-03T17:13:48.041Z,10.80
2019-05-03T17:16:17.548Z,10.70
2019-05-03T17:18:46.867Z,10.50
2019-05-03T17:21:16.306Z,10.30
2019-05-03T17:23:45.902Z,10.20
2019-05-03T17:26:17.573Z,10.10
2019-05-03T17:28:48.464Z,10.00
2019-05-03T17:31:17.855Z,9.90
2019-05-03T17:33:53.643Z,9.90
2019-05-03T17:36:18.307Z,9.90
2019-05-03T17:38:49.349Z,10.00
2019-05-03T17:41:23.347Z,10.20
2019-05-03T17:43:57.255Z,10.20
2019-05-03T17:46:26.646Z,10.20
2019-05-03T17:48:55.982Z,10.10
2019-05-03T17:51:35.967Z,10.10
2019-05-03T17:54:14.485Z,10.00
2019-05-03T17:56:55.118Z,10.00
2019-05-03T17:59:26.555Z,9.90
2019-05-03T18:02:15.337Z,9.90
2019-05-03T18:04:50.864Z,9.80
2019-05-03T18:07:21.872Z,9.80
2019-05-03T18:09:52.979Z,9.80
2019-05-03T18:12:24.611Z,9.80
2019-05-03T18:14:56.004Z,9.70
2019-05-03T18:17:25.365Z,9.80
2019-05-03T18:19:55.370Z,9.70
2019-05-03T18:22:24.955Z,9.60
2019-05-03T18:24:55.467Z,9.60
2019-05-03T18:27:25.189Z,9.50
2019-05-03T18:29:56.726Z,9.50
2019-05-03T18:32:29.235Z,9.40
2019-05-03T18:34:58.731Z,9.40
2019-05-03T18:37:28.226Z,9.40
2019-05-03T18:39:58.206Z,9.40
2019-05-03T18:42:41.525Z,9.40
2019-05-03T18:45:16.965Z,9.40
2019-05-03T18:47:45.607Z,9.40
2019-05-03T18:50:15.315Z,9.40
2019-05-03T18:52:44.972Z,9.40
2019-05-03T18:55:16.830Z,9.40
2019-05-03T18:57:48.864Z,9.40
2019-05-03T19:00:19.392Z,9.50
2019-05-03T19:02:49.036Z,9.40
2019-05-03T19:05:20.685Z,9.40
2019-05-03T19:07:57.748Z,9.40
2019-05-03T19:10:40.683Z,9.40
2019-05-03T19:13:11.644Z,9.40
2019-05-03T19:15:41.280Z,9.40
2019-05-03T19:18:24.582Z,9.40
2019-05-03T19:20:55.277Z,9.40
2019-05-03T19:23:24.955Z,9.40
2019-05-03T19:25:55.271Z,9.40
2019-05-03T19:28:25.470Z,9.40
2019-05-03T19:30:55.610Z,9.30
2019-05-03T19:33:25.436Z,9.30
2019-05-03T19:35:55.055Z,9.30
2019-05-03T19:38:25.100Z,9.30
2019-05-03T19:40:54.828Z,9.30
2019-05-03T19:43:24.369Z,9.30
2019-05-03T19:45:56.845Z,9.30
2019-05-03T19:48:26.266Z,9.30
2019-05-03T19:50:55.587Z,9.30
2019-05-03T19:53:26.637Z,9.30
2019-05-03T19:55:56.060Z,9.20
2019-05-03T19:58:25.476Z,9.30
2019-05-03T20:01:11.460Z,9.30
2019-05-03T20:03:45.555Z,9.20
2019-05-03T20:06:16.733Z,9.20
2019-05-03T20:08:53.700Z,9.20
2019-05-03T20:11:25.057Z,9.20
2019-05-03T20:13:55.178Z,9.20
2019-05-03T20:16:26.113Z,9.10
2019-05-03T20:18:57.048Z,9.10
2019-05-03T20:21:26.742Z,9.10
2019-05-03T20:23:56.152Z,9.10
2019-05-03T20:26:25.481Z,9.10
2019-05-03T20:28:56.351Z,9.20
2019-05-03T20:31:25.687Z,9.20
2019-05-03T20:33:55.099Z,9.10
2019-05-03T20:36:24.441Z,9.10
2019-05-03T20:38:55.039Z,9.10
2019-05-03T20:41:25.518Z,9.10
2019-05-03T20:44:10.905Z,9.10
2019-05-03T20:46:45.052Z,9.00
2019-05-03T20:49:16.228Z,9.10
2019-05-03T20:51:51.050Z,9.00
2019-05-03T20:54:18.626Z,9.00
2019-05-03T20:56:47.987Z,9.00
2019-05-03T20:59:17.352Z,9.00
2019-05-03T21:01:46.709Z,8.90
2019-05-03T21:04:16.143Z,8.90
2019-05-03T21:06:45.751Z,8.90
2019-05-03T21:09:15.290Z,8.80
2019-05-03T21:11:45.687Z,8.80
2019-05-03T21:14:15.675Z,8.80
2019-05-03T21:16:55.542Z,8.70
2019-05-03T21:19:29.316Z,8.70
2019-05-03T21:22:03.248Z,8.60
2019-05-03T21:24:38.104Z,8.60
2019-05-03T21:27:07.669Z,8.60
2019-05-03T21:29:38.635Z,8.60
2019-05-03T21:32:07.971Z,8.60
2019-05-03T21:34:37.373Z,8.60
2019-05-03T21:37:06.730Z,8.60
2019-05-03T21:39:37.506Z,8.60
2019-05-03T21:42:06.894Z,8.60
2019-05-03T21:44:36.279Z,8.60
2019-05-03T21:47:10.409Z,8.60
2019-05-03T21:49:41.478Z,8.60
2019-05-03T21:52:12.129Z,8.60
2019-05-03T21:54:41.480Z,8.70
2019-05-03T21:57:10.824Z,8.70
2019-05-03T21:59:40.262Z,8.70
2019-05-03T22:02:09.834Z,8.70
2019-05-03T22:04:39.236Z,8.70
2019-05-03T22:07:08.588Z,8.70
2019-05-03T22:09:39.730Z,8.70
2019-05-03T22:12:09.093Z,8.70
2019-05-03T22:14:40.888Z,8.70
2019-05-03T22:17:28.261Z,8.70
2019-05-03T22:20:02.172Z,8.70
2019-05-03T22:22:36.516Z,8.60
2019-05-03T22:25:07.641Z,8.60
2019-05-03T22:27:38.631Z,8.60
2019-05-03T22:30:08.459Z,8.60
2019-05-03T22:32:37.794Z,8.60
2019-05-03T22:35:08.517Z,8.70
2019-05-03T22:37:37.921Z,8.60
2019-05-03T22:40:07.819Z,8.60
2019-05-03T22:42:37.224Z,8.60
2019-05-03T22:45:06.790Z,8.60
2019-05-03T22:47:36.136Z,8.60
2019-05-03T22:50:06.634Z,8.60
2019-05-03T22:52:36.024Z,8.60
2019-05-03T22:55:08.592Z,8.60
2019-05-03T22:57:37.933Z,8.60
2019-05-03T23:00:08.243Z,8.60
2019-05-03T23:02:40.214Z,8.60
2019-05-03T23:05:10.155Z,8.60
2019-05-03T23:07:39.519Z,8.50
2019-05-03T23:10:09.504Z,8.50
2019-05-03T23:12:38.852Z,8.50
2019-05-03T23:15:09.985Z,8.40
2019-05-03T23:17:39.394Z,8.50
2019-05-03T23:20:14.957Z,8.40
2019-05-03T23:22:45.560Z,8.40
2019-05-03T23:25:15.139Z,8.40
2019-05-03T23:27:44.542Z,8.30
2019-05-03T23:30:15.382Z,8.30
2019-05-03T23:32:45.337Z,8.20
2019-05-03T23:35:14.768Z,8.20
2019-05-03T23:37:44.994Z,8.20
2019-05-03T23:40:14.840Z,8.20
2019-05-03T23:42:44.315Z,8.20
2019-05-03T23:45:14.882Z,8.20
2019-05-03T23:47:48.953Z,8.10
2019-05-03T23:50:19.815Z,8.10
2019-05-03T23:52:49.211Z,8.10
2019-05-03T23:55:25.631Z,8.10
2019-05-03T23:57:55.407Z,8.00
